Time;durP1;ratioP1;P1;durP2;ratioP2;P2;SDS_P1;SDS_P2;PMS_P1;PMS_P2;Temp;Humidity;BMP_temperature;BMP_pressure;BME280_temperature;BME280_humidity;BME280_pressure;Samples;Min_cycle;Max_cycle;Signal;HPM_P1;HPM_P2
2023/08/19 00:01:23;;;;;;;10.25;7.03;;;;;;;25.81;74.41;100848.94;4898291;29;20045;-71
2023/08/19 00:03:51;;;;;;;8.77;6.53;;;;;;;25.86;73.96;100852.22;4899049;29;20060;-71
2023/08/19 00:06:33;;;;;;;7.13;6.38;;;;;;;25.89;74.39;100851.47;4898220;29;20053;-71
2023/08/19 00:09:03;;;;;;;10.20;7.28;;;;;;;25.82;74.67;100842.97;4898777;29;20090;-71
2023/08/19 00:11:32;;;;;;;8.57;6.40;;;;;;;25.80;75.41;100848.13;4898464;29;20059;-71
2023/08/19 00:14:00;;;;;;;9.27;6.72;;;;;;;25.76;75.46;100842.47;4898495;29;20055;-71
2023/08/19 00:16:28;;;;;;;7.18;5.95;;;;;;;25.79;74.93;100849.31;4899388;29;20392;-71
2023/08/19 00:18:56;;;;;;;7.22;6.47;;;;;;;25.72;75.61;100855.63;4898433;29;20392;-71
2023/08/19 00:21:25;;;;;;;7.28;6.50;;;;;;;25.65;74.82;100854.72;4898818;29;20059;-71
2023/08/19 00:23:54;;;;;;;7.47;6.40;;;;;;;25.60;75.62;100853.84;4898404;29;20059;-71
2023/08/19 00:26:22;;;;;;;9.15;6.40;;;;;;;25.56;75.90;100852.19;4898300;29;20049;-71
2023/08/19 00:28:50;;;;;;;8.60;6.30;;;;;;;25.42;75.85;100847.94;4898302;29;20515;-71
2023/08/19 00:31:18;;;;;;;8.38;6.38;;;;;;;25.32;76.94;100854.19;4897738;29;20057;-71
2023/08/19 00:33:46;;;;;;;7.80;6.22;;;;;;;25.32;76.58;100849.38;4898685;29;20591;-71
2023/08/19 00:36:14;;;;;;;8.85;6.80;;;;;;;25.32;76.54;100843.78;4896992;29;20437;-71
2023/08/19 00:38:44;;;;;;;7.07;6.28;;;;;;;25.29;77.89;100840.94;4896596;29;20052;-72
2023/08/19 00:41:12;;;;;;;7.20;6.50;;;;;;;25.26;77.01;100850.09;4898259;29;20509;-71
2023/08/19 00:43:40;;;;;;;8.48;6.57;;;;;;;25.34;77.05;100852.63;4898156;29;20057;-71
2023/08/19 00:46:08;;;;;;;6.90;6.20;;;;;;;25.30;77.71;100854.56;4897095;29;20055;-71
2023/08/19 00:48:36;;;;;;;6.88;6.28;;;;;;;25.29;77.12;100854.94;4896389;29;20049;-71
2023/08/19 00:51:05;;;;;;;8.15;6.60;;;;;;;25.29;77.11;100849.34;4897872;29;20400;-71
2023/08/19 00:53:34;;;;;;;7.10;6.18;;;;;;;25.27;77.07;100851.72;4897965;29;20060;-71
2023/08/19 00:56:03;;;;;;;7.72;6.18;;;;;;;25.16;77.42;100848.75;4898183;29;20048;-71
2023/08/19 00:58:31;;;;;;;8.82;6.28;;;;;;;25.13;78.12;100853.09;4897762;29;20052;-71
2023/08/19 01:01:00;;;;;;;6.97;6.28;;;;;;;25.13;78.06;100847.50;4896372;29;20108;-71
2023/08/19 01:03:28;;;;;;;6.90;6.20;;;;;;;25.19;77.44;100848.81;4896331;29;20052;-71
2023/08/19 01:05:59;;;;;;;11.02;6.93;;;;;;;25.22;77.56;100850.84;4897542;29;20053;-71
2023/08/19 01:08:38;;;;;;;7.18;6.47;;;;;;;25.32;77.24;100849.38;4896240;29;20045;-71
2023/08/19 01:11:15;;;;;;;11.30;7.38;;;;;;;25.32;77.81;100855.00;4897707;29;20504;-71
2023/08/19 01:14:08;;;;;;;8.82;6.72;;;;;;;25.21;79.23;100846.44;4896602;29;20063;-71
2023/08/19 01:16:40;;;;;;;8.95;7.53;;;;;;;25.26;77.99;100850.09;4927817;29;20056;-72
2023/08/19 01:19:18;;;;;;;9.35;7.45;;;;;;;25.22;79.11;100841.66;4897360;29;20488;-71
2023/08/19 01:21:47;;;;;;;9.45;7.38;;;;;;;25.15;78.82;100850.72;4897137;29;20412;-71
2023/08/19 01:24:20;;;;;;;9.32;7.45;;;;;;;25.17;79.25;100850.34;4895863;29;20401;-72
2023/08/19 01:26:48;;;;;;;10.23;8.23;;;;;;;25.15;79.41;100845.13;4897389;29;20068;-71
2023/08/19 01:29:16;;;;;;;9.43;7.97;;;;;;;25.07;79.56;100844.19;4897031;29;20060;-71
2023/08/19 01:31:45;;;;;;;8.73;7.88;;;;;;;25.12;80.10;100837.47;4897108;29;20385;-71
2023/08/19 01:34:13;;;;;;;9.57;7.97;;;;;;;25.05;79.55;100843.75;4897339;29;20052;-71
2023/08/19 01:36:44;;;;;;;8.90;8.00;;;;;;;25.02;79.65;100840.91;4897821;29;20048;-71
2023/08/19 01:39:13;;;;;;;9.90;8.13;;;;;;;24.95;80.16;100847.19;4897212;29;20056;-71
2023/08/19 01:41:42;;;;;;;9.18;8.27;;;;;;;24.89;82.04;100837.47;4897237;29;20048;-71
2023/08/19 01:44:11;;;;;;;8.57;7.68;;;;;;;24.79;81.56;100833.28;4897564;29;20053;-72
2023/08/19 01:46:38;;;;;;;10.98;8.43;;;;;;;24.80;81.75;100832.91;4897208;29;20052;-72
2023/08/19 01:49:06;;;;;;;9.50;8.32;;;;;;;24.81;81.30;100833.72;4926894;29;20052;-71
2023/08/19 01:51:34;;;;;;;9.25;8.27;;;;;;;24.90;81.47;100837.09;4896761;29;20069;-72
2023/08/19 01:54:04;;;;;;;10.40;8.80;;;;;;;24.91;81.29;100832.31;4895595;29;20802;-72
2023/08/19 01:56:32;;;;;;;9.90;8.13;;;;;;;24.85;81.65;100831.81;4897115;29;20053;-72
2023/08/19 01:59:00;;;;;;;11.48;8.40;;;;;;;24.88;81.81;100831.06;4895363;29;20412;-71
2023/08/19 02:01:28;;;;;;;9.82;8.88;;;;;;;24.89;82.01;100831.88;4895593;29;20064;-71
2023/08/19 02:03:56;;;;;;;9.82;8.57;;;;;;;24.95;82.30;100838.78;4896891;29;20052;-72
2023/08/19 02:06:24;;;;;;;10.32;7.90;;;;;;;24.98;80.92;100835.25;4895721;29;20056;-71
2023/08/19 02:08:52;;;;;;;11.98;8.13;;;;;;;25.00;80.53;100837.66;4895764;29;20048;-72
2023/08/19 02:11:20;;;;;;;8.10;7.25;;;;;;;24.95;80.41;100835.97;4895472;29;20049;-71
2023/08/19 02:13:48;;;;;;;9.98;7.65;;;;;;;24.95;81.08;100835.97;4896919;29;20056;-72
2023/08/19 02:16:16;;;;;;;8.38;7.55;;;;;;;25.00;80.44;100838.47;4896847;29;20496;-71
2023/08/19 02:18:44;;;;;;;8.43;7.53;;;;;;;24.94;81.59;100835.16;4895921;29;20067;-72
2023/08/19 02:21:12;;;;;;;10.45;7.95;;;;;;;24.92;81.04;100840.34;4895262;29;20052;-72
2023/08/19 02:23:40;;;;;;;8.68;7.78;;;;;;;24.93;81.06;100843.94;4896792;29;20052;-72
2023/08/19 02:26:08;;;;;;;10.65;8.73;;;;;;;24.87;81.40;100840.63;4896766;29;20053;-71
2023/08/19 02:28:36;;;;;;;9.25;7.68;;;;;;;24.89;81.05;100838.28;4895912;29;20059;-71
2023/08/19 02:31:05;;;;;;;9.88;8.88;;;;;;;24.89;81.05;100838.28;4895976;29;20059;-71
2023/08/19 02:33:33;;;;;;;11.82;8.75;;;;;;;24.93;80.92;100833.53;4897029;29;20052;-71
2023/08/19 02:36:01;;;;;;;11.15;9.13;;;;;;;24.90;81.17;100833.50;4895248;29;20060;-71
2023/08/19 02:38:32;;;;;;;9.18;8.15;;;;;;;24.90;81.60;100839.09;4896876;29;20079;-71
2023/08/19 02:41:00;;;;;;;9.95;8.30;;;;;;;24.86;81.66;100838.19;4896767;29;20385;-71
2023/08/19 02:43:28;;;;;;;10.68;8.45;;;;;;;24.84;82.00;100835.81;4900358;29;20075;-71
2023/08/19 02:45:57;;;;;;;9.82;8.55;;;;;;;24.76;81.92;100834.00;4899822;29;20404;-71
2023/08/19 02:48:25;;;;;;;11.15;9.18;;;;;;;24.76;82.45;100828.41;4900361;29;20071;-71
2023/08/19 02:50:54;;;;;;;11.65;9.15;;;;;;;24.75;82.98;100826.78;4899045;29;20060;-71
2023/08/19 02:53:22;;;;;;;10.70;9.32;;;;;;;24.66;83.72;100818.63;4929857;29;20056;-71
2023/08/19 02:55:52;;;;;;;10.75;8.73;;;;;;;24.63;84.35;100833.38;4900993;29;20049;-71
2023/08/19 02:58:20;;;;;;;12.00;9.10;;;;;;;24.62;83.88;100835.38;4898415;29;20056;-71
2023/08/19 03:00:48;;;;;;;11.85;9.10;;;;;;;24.59;83.46;100838.91;4898691;29;20052;-71
2023/08/19 03:03:17;;;;;;;12.45;9.65;;;;;;;24.57;84.41;100832.88;4897956;29;20059;-71
2023/08/19 03:05:45;;;;;;;10.77;9.68;;;;;;;24.62;83.99;100837.34;4899685;29;20052;-71
2023/08/19 03:08:13;;;;;;;11.20;9.13;;;;;;;24.60;83.73;100836.91;4899549;29;20064;-71
2023/08/19 03:10:41;;;;;;;11.45;9.00;;;;;;;24.49;84.20;100829.13;4930065;29;20065;-71
2023/08/19 03:13:09;;;;;;;12.23;9.05;;;;;;;24.59;83.37;100830.53;4900135;29;20068;-71
2023/08/19 03:15:38;;;;;;;13.02;9.50;;;;;;;24.51;83.75;100825.97;4899832;29;20496;-71
2023/08/19 03:18:06;;;;;;;10.07;8.82;;;;;;;24.55;83.84;100829.63;4899808;29;20064;-71
2023/08/19 03:20:34;;;;;;;11.32;9.13;;;;;;;24.43;84.08;100830.59;4898083;29;20074;-71
2023/08/19 03:23:03;;;;;;;11.77;9.00;;;;;;;24.41;84.82;100831.00;4899707;29;20056;-71
2023/08/19 03:25:31;;;;;;;10.90;9.60;;;;;;;24.44;84.52;100829.44;4898138;29;20060;-71
2023/08/19 03:27:59;;;;;;;10.48;8.90;;;;;;;24.37;85.03;100832.91;4899891;29;20058;-71
2023/08/19 03:30:27;;;;;;;10.45;9.00;;;;;;;24.40;84.58;100826.56;4897921;29;20504;-71
2023/08/19 03:32:55;;;;;;;10.52;8.98;;;;;;;24.34;84.55;100827.22;4897924;29;20404;-71
2023/08/19 03:35:23;;;;;;;11.02;8.70;;;;;;;24.29;84.78;100822.72;4898883;29;20048;-71
2023/08/19 03:37:51;;;;;;;9.73;8.63;;;;;;;24.28;84.54;100823.91;4898268;29;20056;-71
2023/08/19 03:40:19;;;;;;;10.32;8.15;;;;;;;24.36;85.86;100822.06;4897826;29;20057;-71
2023/08/19 03:42:47;;;;;;;9.63;8.00;;;;;;;24.35;85.13;100826.06;4898022;29;20053;-71
2023/08/19 03:45:15;;;;;;;10.65;8.48;;;;;;;24.34;84.39;100824.44;4897969;29;20044;-71
2023/08/19 03:47:44;;;;;;;9.38;8.18;;;;;;;24.29;83.98;100817.97;4899058;29;20053;-71
2023/08/19 03:50:12;;;;;;;10.23;7.20;;;;;;;24.27;83.90;100813.91;4899355;29;20048;-71
2023/08/19 03:52:40;;;;;;;10.10;7.43;;;;;;;24.25;84.04;100822.66;4898919;29;20049;-71
2023/08/19 03:55:09;;;;;;;9.30;7.90;;;;;;;24.27;83.31;100813.91;4897805;29;20048;-71
2023/08/19 03:57:37;;;;;;;8.82;7.60;;;;;;;24.27;83.74;100813.91;4899093;29;20057;-71
2023/08/19 04:00:07;;;;;;;9.05;8.15;;;;;;;24.16;84.07;100830.47;4897105;29;20059;-71
2023/08/19 04:02:40;;;;;;;8.40;7.28;;;;;;;24.20;83.87;100825.78;4897057;29;20103;-71
2023/08/19 04:05:11;;;;;;;11.73;8.25;;;;;;;24.22;86.40;100822.59;4897150;29;20056;-71
2023/08/19 04:07:39;;;;;;;15.73;7.85;;;;;;;24.28;90.14;100826.72;4897881;29;20060;-72
2023/08/19 04:10:08;;;;;;;14.65;8.35;;;;;;;24.23;90.63;100819.44;4898805;29;20060;-72
2023/08/19 04:12:36;;;;;;;15.25;8.18;;;;;;;24.05;90.14;100838.59;4897409;29;20065;-72
2023/08/19 04:15:05;;;;;;;9.65;7.50;;;;;;;23.91;90.61;100832.69;4897364;29;20049;-72
2023/08/19 04:17:34;;;;;;;14.20;8.75;;;;;;;23.81;92.86;100836.88;4897449;29;20404;-73
2023/08/19 04:20:08;;;;;;;19.88;9.30;;;;;;;23.67;93.50;100834.56;4897280;29;20041;-72
2023/08/19 04:22:37;;;;;;;9.15;8.07;;;;;;;23.73;89.92;100847.09;4928118;29;20057;-72
2023/08/19 04:25:05;;;;;;;10.07;7.75;;;;;;;23.81;89.89;100854.47;4898517;29;20412;-72
2023/08/19 04:27:33;;;;;;;8.70;7.45;;;;;;;23.93;87.45;100849.91;4897980;29;20075;-71
2023/08/19 04:30:05;;;;;;;8.35;7.55;;;;;;;23.95;89.58;100855.97;4896410;29;20059;-71
2023/08/19 04:32:34;;;;;;;9.55;7.57;;;;;;;24.01;87.47;100862.88;4896740;29;20055;-72
2023/08/19 04:35:03;;;;;;;9.93;7.60;;;;;;;24.07;87.71;100861.44;4896958;29;20490;-72
2023/08/19 04:37:31;;;;;;;9.27;7.65;;;;;;;24.04;89.04;100859.34;4897943;29;20057;-72
2023/08/19 04:40:01;;;;;;;8.38;7.45;;;;;;;24.05;88.26;100860.94;4896999;29;20045;-72
2023/08/19 04:42:36;;;;;;;8.43;7.63;;;;;;;24.06;87.29;100853.38;4896458;29;20060;-72
2023/08/19 04:45:09;;;;;;;9.10;7.60;;;;;;;24.06;87.46;100853.38;4896916;29;20377;-72
2023/08/19 04:47:41;;;;;;;12.48;7.53;;;;;;;24.04;88.57;100864.94;4896203;29;20053;-72
2023/08/19 04:50:10;;;;;;;8.93;8.02;;;;;;;24.10;88.25;100866.28;4896056;29;20381;-72
2023/08/19 04:52:38;;;;;;;8.82;7.90;;;;;;;24.11;87.30;100867.94;4896694;29;20063;-72
2023/08/19 04:55:09;;;;;;;9.02;7.25;;;;;;;24.18;88.10;100861.66;4896703;29;20056;-71
2023/08/19 04:57:36;;;;;;;9.20;7.55;;;;;;;24.24;87.56;100871.38;4896359;29;20060;-72
2023/08/19 05:00:08;;;;;;;10.70;7.20;;;;;;;24.27;88.47;100858.66;4896189;29;20041;-72
2023/08/19 05:02:36;;;;;;;10.27;7.72;;;;;;;24.33;87.65;100873.94;4896061;29;20408;-72
2023/08/19 05:05:05;;;;;;;9.75;7.78;;;;;;;24.42;87.39;100863.38;4895767;29;20063;-72
2023/08/19 05:07:33;;;;;;;8.48;7.25;;;;;;;24.49;86.61;100864.69;4897513;29;20079;-72
2023/08/19 05:10:01;;;;;;;11.07;7.88;;;;;;;24.50;89.56;100867.13;4896195;29;20404;-72
2023/08/19 05:12:29;;;;;;;10.85;8.35;;;;;;;24.60;85.26;100862.09;4895911;29;20518;-72
2023/08/19 05:14:57;;;;;;;7.93;7.13;;;;;;;24.68;86.87;100870.25;4898001;29;20059;-72
2023/08/19 05:17:27;;;;;;;9.02;8.13;;;;;;;24.78;84.76;100865.25;4927599;29;20049;-72
2023/08/19 05:19:55;;;;;;;8.73;7.75;;;;;;;24.88;81.71;100867.44;4895917;29;20048;-71
2023/08/19 05:22:23;;;;;;;12.95;8.43;;;;;;;24.93;84.47;100878.34;4895801;29;20052;-71
2023/08/19 05:24:51;;;;;;;7.97;7.07;;;;;;;25.00;83.72;100885.25;4896438;29;20071;-72
2023/08/19 05:27:21;;;;;;;11.55;7.38;;;;;;;25.07;84.59;100877.00;4896208;29;20524;-72
2023/08/19 05:29:49;;;;;;;11.13;8.50;;;;;;;25.23;83.42;100883.25;4897093;29;20373;-72
2023/08/19 05:32:17;;;;;;;8.52;7.57;;;;;;;25.45;81.32;100880.81;4897231;29;20053;-72
2023/08/19 05:34:44;;;;;;;8.70;7.78;;;;;;;25.68;80.73;100890.38;4896825;29;20053;-72
2023/08/19 05:37:13;;;;;;;9.27;7.85;;;;;;;25.70;80.92;100890.84;4897254;29;20041;-72
2023/08/19 05:39:40;;;;;;;10.50;7.65;;;;;;;25.71;81.03;100904.44;4898095;29;20727;-72
2023/08/19 05:42:09;;;;;;;9.75;7.80;;;;;;;25.92;80.48;100900.38;4897431;29;20056;-72
2023/08/19 05:44:37;;;;;;;7.47;6.68;;;;;;;25.93;77.77;100901.16;4897426;29;20053;-72
2023/08/19 05:47:05;;;;;;;7.03;6.18;;;;;;;25.91;78.30;100895.94;4896798;29;20461;-72
2023/08/19 05:49:33;;;;;;;9.80;7.13;;;;;;;26.06;76.03;100902.56;4897218;29;20049;-72
2023/08/19 05:52:01;;;;;;;7.43;6.55;;;;;;;26.37;77.24;100894.97;4896885;29;20056;-72
2023/08/19 05:54:29;;;;;;;7.70;6.90;;;;;;;26.42;76.95;100899.44;4897283;29;20370;-72
2023/08/19 05:56:57;;;;;;;7.50;6.80;;;;;;;26.42;75.64;100899.44;4896473;29;20059;-72
2023/08/19 05:59:25;;;;;;;8.48;6.90;;;;;;;26.32;73.39;100900.94;4897363;29;20060;-72
2023/08/19 06:01:53;;;;;;;9.65;7.85;;;;;;;26.55;73.25;100889.56;4896489;29;20057;-72
2023/08/19 06:04:21;;;;;;;8.13;7.32;;;;;;;27.01;73.04;100882.06;4897446;29;20079;-72
2023/08/19 06:06:49;;;;;;;8.70;7.43;;;;;;;27.12;71.17;100887.78;4896879;29;20048;-72
2023/08/19 06:09:21;;;;;;;8.18;6.90;;;;;;;27.37;71.06;100888.00;4897480;29;20060;-72
2023/08/19 06:11:52;;;;;;;10.45;6.95;;;;;;;27.51;71.57;100889.28;4896982;29;20064;-72
2023/08/19 06:14:20;;;;;;;8.00;7.20;;;;;;;27.52;69.40;100888.13;4897656;29;20052;-72
2023/08/19 06:16:49;;;;;;;7.47;6.70;;;;;;;27.90;71.23;100885.97;4901162;29;20056;-72
2023/08/19 06:19:17;;;;;;;10.00;7.43;;;;;;;28.19;67.88;100885.31;4900680;29;20060;-72
2023/08/19 06:21:46;;;;;;;12.00;6.65;;;;;;;28.19;68.07;100885.31;4900898;29;20103;-72
2023/08/19 06:24:14;;;;;;;11.05;7.38;;;;;;;28.26;67.34;100890.19;4900691;29;20048;-72
2023/08/19 06:26:42;;;;;;;7.57;6.78;;;;;;;28.40;69.41;100893.06;4901005;29;20071;-72
2023/08/19 06:29:11;;;;;;;8.35;7.20;;;;;;;28.55;68.23;100893.13;4901055;29;20284;-72
2023/08/19 06:31:40;;;;;;;9.98;7.63;;;;;;;28.59;67.59;100887.50;4915363;29;20053;-72
2023/08/19 06:34:08;;;;;;;9.25;7.47;;;;;;;28.57;67.88;100890.72;4901343;29;20055;-73
2023/08/19 06:36:40;;;;;;;8.32;7.05;;;;;;;28.54;68.14;100899.97;4901080;29;20057;-72
2023/08/19 06:39:18;;;;;;;9.50;7.38;;;;;;;28.93;67.58;100893.63;4900433;29;20063;-72
2023/08/19 06:41:51;;;;;;;10.95;6.78;;;;;;;29.06;63.71;100890.44;4900790;29;20071;-73
2023/08/19 06:44:21;;;;;;;7.93;6.70;;;;;;;29.02;64.71;100889.63;4900655;29;20053;-72
2023/08/19 06:46:53;;;;;;;7.65;6.20;;;;;;;29.39;64.80;100891.25;4899204;29;20400;-71
2023/08/19 06:49:22;;;;;;;11.65;6.68;;;;;;;29.31;63.50;100889.63;4899987;29;20408;-72
2023/08/19 06:51:50;;;;;;;6.80;5.82;;;;;;;29.51;63.43;100892.88;4899993;29;20057;-72
2023/08/19 06:54:19;;;;;;;8.38;6.50;;;;;;;29.72;62.84;100897.69;4899008;29;20056;-72
2023/08/19 06:57:00;;;;;;;10.07;6.38;;;;;;;29.86;61.63;100890.41;4899805;29;20459;-72
2023/08/19 06:59:39;;;;;;;7.30;6.45;;;;;;;29.91;60.50;100896.44;4899334;29;20052;-73
2023/08/19 07:02:10;;;;;;;10.55;6.82;;;;;;;29.83;59.42;100896.84;4897823;29;20072;-73
2023/08/19 07:04:44;;;;;;;7.65;6.28;;;;;;;30.11;60.17;100906.50;4899881;29;20068;-73
2023/08/19 07:07:13;;;;;;;;;;;;;;;30.33;58.50;100892.28;4899923;29;20056;-72
2023/08/19 07:09:42;;;;;;;9.52;6.40;;;;;;;30.51;58.08;100898.66;4899599;29;19928;-72
2023/08/19 07:12:11;;;;;;;8.93;6.57;;;;;;;30.23;57.10;100900.41;4899229;29;20072;-71
2023/08/19 07:14:40;;;;;;;6.63;6.03;;;;;;;30.57;57.28;100901.84;4899612;29;20060;-72
2023/08/19 07:17:10;;;;;;;7.57;5.63;;;;;;;30.81;58.03;100894.50;4899559;29;20049;-73
2023/08/19 07:19:42;;;;;;;6.97;6.28;;;;;;;31.00;56.24;100903.66;4899808;29;20057;-72
2023/08/19 07:22:10;;;;;;;10.00;6.20;;;;;;;31.08;56.17;100902.34;4899593;29;20056;-72
2023/08/19 07:24:41;;;;;;;8.38;6.38;;;;;;;31.30;55.21;100909.91;4899792;29;20055;-72
2023/08/19 07:27:10;;;;;;;8.93;5.68;;;;;;;31.34;55.26;100911.50;4899046;29;20053;-72
2023/08/19 07:29:40;;;;;;;7.00;5.93;;;;;;;31.46;54.10;100901.69;4899523;29;20048;-73
2023/08/19 07:32:12;;;;;;;9.30;6.75;;;;;;;31.32;55.21;100905.44;4899633;29;20103;-72
2023/08/19 07:34:40;;;;;;;7.72;6.20;;;;;;;31.57;53.49;100892.31;4899624;29;20060;-73
2023/08/19 07:37:10;;;;;;;7.68;6.18;;;;;;;31.54;53.43;100899.59;4899661;29;20041;-73
2023/08/19 07:39:38;;;;;;;7.47;5.47;;;;;;;31.73;52.58;100903.84;4899748;29;20404;-73
2023/08/19 07:42:07;;;;;;;8.80;6.40;;;;;;;31.83;53.05;100904.97;4899647;29;20095;-73
2023/08/19 07:44:35;;;;;;;6.18;5.57;;;;;;;32.09;52.96;100901.84;4899958;29;20467;-73
2023/08/19 07:47:04;;;;;;;6.63;5.68;;;;;;;32.29;53.17;100904.84;4899797;29;20067;-73
2023/08/19 07:49:32;;;;;;;6.43;5.65;;;;;;;32.05;51.71;100901.91;4899510;29;20384;-74
2023/08/19 07:52:01;;;;;;;5.53;4.88;;;;;;;31.98;51.92;100902.00;4899481;29;20080;-73
2023/08/19 07:54:29;;;;;;;6.75;5.53;;;;;;;32.35;51.08;100908.03;4899607;29;20057;-72
2023/08/19 07:56:58;;;;;;;10.25;6.55;;;;;;;32.44;51.56;100902.66;4898574;29;20436;-72
2023/08/19 07:59:27;;;;;;;6.72;5.47;;;;;;;32.47;50.82;100904.66;4898550;29;20374;-72
2023/08/19 08:01:55;;;;;;;10.23;5.50;;;;;;;32.62;51.37;100898.78;4898037;29;20432;-72
2023/08/19 08:04:28;;;;;;;6.60;5.90;;;;;;;32.60;49.83;100907.75;4898223;29;20582;-73
2023/08/19 08:06:56;;;;;;;6.45;5.65;;;;;;;32.70;49.72;100906.75;4898960;29;20064;-73
2023/08/19 08:09:25;;;;;;;6.93;5.68;;;;;;;32.86;49.47;100908.16;4898375;29;20556;-73
2023/08/19 08:11:53;;;;;;;6.95;5.50;;;;;;;32.78;48.60;100912.34;4898528;29;20430;-73
2023/08/19 08:14:22;;;;;;;7.32;5.43;;;;;;;32.84;50.12;100902.13;4898283;29;20064;-71
2023/08/19 08:16:51;;;;;;;9.02;5.82;;;;;;;32.74;49.63;100901.03;4898331;29;20401;-73
2023/08/19 08:19:22;;;;;;;6.32;5.38;;;;;;;33.14;48.86;100894.81;4898245;29;20082;-73
2023/08/19 08:21:50;;;;;;;6.68;5.78;;;;;;;33.25;48.60;100897.47;4898100;29;20048;-73
2023/08/19 08:24:20;;;;;;;5.80;5.22;;;;;;;32.86;48.54;100896.81;4898286;29;20075;-73
2023/08/19 08:26:48;;;;;;;5.70;5.10;;;;;;;33.19;47.74;100893.50;4897912;29;20052;-72
2023/08/19 08:29:17;;;;;;;8.65;6.20;;;;;;;33.20;45.92;100897.94;4898302;29;20080;-73
2023/08/19 08:31:45;;;;;;;5.63;5.13;;;;;;;33.38;45.89;100898.44;4898213;29;20060;-72
2023/08/19 08:34:13;;;;;;;6.85;5.35;;;;;;;33.51;46.60;100898.66;4898358;29;20075;-72
2023/08/19 08:36:42;;;;;;;5.03;4.63;;;;;;;33.60;45.17;100895.25;4898703;29;20048;-72
2023/08/19 08:39:10;;;;;;;5.53;5.03;;;;;;;33.43;44.16;100902.81;4898513;29;20060;-73
2023/08/19 08:41:39;;;;;;;6.32;5.63;;;;;;;33.32;43.63;100905.06;4898257;29;20523;-73
2023/08/19 08:44:09;;;;;;;6.78;5.40;;;;;;;33.21;44.92;100906.03;4896681;29;20049;-74
2023/08/19 08:46:39;;;;;;;6.60;5.43;;;;;;;33.44;46.23;100906.44;4898178;29;20056;-73
2023/08/19 08:49:08;;;;;;;6.20;5.47;;;;;;;33.50;46.25;100899.88;4897956;29;20052;-72
2023/08/19 08:51:38;;;;;;;5.97;5.38;;;;;;;33.41;46.64;100896.78;4898056;29;20064;-73
2023/08/19 08:54:07;;;;;;;6.57;5.55;;;;;;;33.44;45.40;100895.91;4898299;29;20076;-72
2023/08/19 08:56:35;;;;;;;6.05;5.35;;;;;;;33.51;45.21;100904.31;4898270;29;20341;-72
2023/08/19 08:59:04;;;;;;;6.40;5.20;;;;;;;33.59;45.98;100907.84;4898271;29;20053;-73
2023/08/19 09:01:34;;;;;;;6.18;5.53;;;;;;;33.75;45.34;100903.47;4898515;29;20056;-72
2023/08/19 09:04:08;;;;;;;6.85;6.25;;;;;;;33.57;45.36;100903.84;4898275;29;20076;-72
2023/08/19 09:06:38;;;;;;;6.72;5.43;;;;;;;33.59;45.56;100907.84;4898113;29;20069;-73
2023/08/19 09:09:10;;;;;;;6.15;5.55;;;;;;;33.59;45.22;100907.03;4897581;29;20049;-72
2023/08/19 09:11:40;;;;;;;5.90;5.35;;;;;;;33.66;46.69;100901.22;4897244;29;20404;-74
2023/08/19 09:14:42;;;;;;;6.47;5.72;;;;;;;33.89;44.47;100899.56;4897413;29;20049;-72
2023/08/19 09:17:12;;;;;;;5.50;5.00;;;;;;;33.90;42.94;100898.31;4897145;29;20408;-72
2023/08/19 09:19:41;;;;;;;5.55;5.05;;;;;;;34.07;44.10;100913.44;4897084;29;20056;-73
2023/08/19 09:22:15;;;;;;;5.80;5.20;;;;;;;34.46;44.71;100908.19;4896031;29;20059;-73
2023/08/19 09:24:46;;;;;;;6.07;5.30;;;;;;;34.74;42.67;100894.56;4897544;29;20056;-72
2023/08/19 09:27:29;;;;;;;6.18;5.30;;;;;;;34.50;43.84;100906.03;4896822;29;20113;-73
2023/08/19 09:29:58;;;;;;;5.25;4.75;;;;;;;34.70;42.61;100902.41;4897034;29;20075;-74
2023/08/19 09:32:27;;;;;;;5.97;5.38;;;;;;;34.53;43.27;100896.66;4911712;29;20174;-72
2023/08/19 09:35:11;;;;;;;9.15;5.45;;;;;;;34.89;41.86;100897.88;4897481;29;20075;-73
2023/08/19 09:37:40;;;;;;;5.82;5.32;;;;;;;35.02;42.32;100897.97;4897456;29;20065;-74
2023/08/19 09:40:13;;;;;;;6.65;5.97;;;;;;;35.30;42.75;100901.38;4897399;29;20049;-73
2023/08/19 09:42:47;;;;;;;6.70;6.10;;;;;;;34.73;41.70;100892.97;4897396;29;20071;-73
2023/08/19 09:45:21;;;;;;;5.38;4.90;;;;;;;34.92;43.11;100894.16;4897335;29;20064;-72
2023/08/19 09:47:50;;;;;;;6.05;5.40;;;;;;;35.35;41.07;100900.03;4897191;29;20063;-72
2023/08/19 09:50:21;;;;;;;7.93;5.40;;;;;;;35.33;41.32;100900.47;4895135;29;20053;-73
2023/08/19 09:52:59;;;;;;;7.88;5.60;;;;;;;35.56;40.58;100897.88;4897365;29;20052;-72
2023/08/19 09:55:30;;;;;;;7.50;5.60;;;;;;;35.75;40.62;100899.81;4897504;29;20061;-73
2023/08/19 09:57:58;;;;;;;8.65;6.07;;;;;;;35.33;41.14;100897.63;4897318;29;20057;-72
2023/08/19 10:00:27;;;;;;;7.43;5.28;;;;;;;35.28;40.45;100883.16;4897148;29;20068;-73
2023/08/19 10:02:56;;;;;;;6.63;5.50;;;;;;;35.53;39.96;100898.78;4897712;29;20056;-72
2023/08/19 10:05:28;;;;;;;6.30;5.60;;;;;;;35.86;40.45;100887.34;4896793;29;20083;-73
2023/08/19 10:08:06;;;;;;;5.97;5.18;;;;;;;35.25;41.04;100885.63;4895689;29;20064;-72
2023/08/19 10:10:41;;;;;;;7.40;5.68;;;;;;;35.38;39.82;100882.88;4897509;29;20053;-74
2023/08/19 10:13:15;;;;;;;6.78;5.65;;;;;;;35.76;40.50;100886.38;4897479;29;20060;-74
2023/08/19 10:15:44;;;;;;;7.07;5.97;;;;;;;35.86;39.89;100890.97;4897861;29;20075;-73
2023/08/19 10:18:20;;;;;;;6.82;5.70;;;;;;;36.24;38.87;100880.97;4897730;29;20079;-74
2023/08/19 10:20:55;;;;;;;6.20;5.43;;;;;;;36.04;39.43;100878.25;4903669;29;20060;-73
2023/08/19 10:23:25;;;;;;;7.03;5.50;;;;;;;35.96;39.01;100894.75;4915463;29;20059;-73
2023/08/19 10:25:54;;;;;;;6.63;5.45;;;;;;;36.01;40.35;100877.13;4915070;29;20400;-74
2023/08/19 10:28:24;;;;;;;7.43;5.68;;;;;;;35.94;39.70;100874.47;4915367;29;20384;-74
2023/08/19 10:31:10;;;;;;;6.55;5.40;;;;;;;34.92;41.27;100879.94;4915109;29;20411;-72
2023/08/19 10:33:43;;;;;;;5.82;5.22;;;;;;;35.30;40.67;100880.66;4915904;29;20056;-72
2023/08/19 10:36:16;;;;;;;6.18;5.55;;;;;;;35.59;40.02;100877.88;4915445;29;20506;-73
2023/08/19 10:38:55;;;;;;;6.10;5.40;;;;;;;36.00;40.59;100880.41;4915420;29;20480;-73
2023/08/19 10:41:36;;;;;;;6.05;5.38;;;;;;;36.01;39.88;100882.81;4915396;29;20139;-73
2023/08/19 10:44:13;;;;;;;6.45;5.50;;;;;;;36.63;39.46;100885.91;4915401;29;20056;-72
2023/08/19 10:46:45;;;;;;;6.93;6.13;;;;;;;36.67;38.17;100887.41;4915493;29;20407;-73
2023/08/19 10:49:23;;;;;;;6.50;5.88;;;;;;;36.81;38.65;100879.66;4915613;29;20059;-73
2023/08/19 10:52:03;;;;;;;6.10;5.50;;;;;;;36.53;38.89;100879.28;4915477;29;20056;-73
2023/08/19 10:54:40;;;;;;;9.13;5.75;;;;;;;36.30;39.63;100878.34;4915545;29;20052;-73
2023/08/19 10:57:15;;;;;;;8.15;5.38;;;;;;;36.34;39.06;100881.09;4915536;29;20435;-73
2023/08/19 10:59:45;;;;;;;6.50;5.03;;;;;;;36.53;39.39;100876.41;4916019;29;20075;-74
2023/08/19 11:02:14;;;;;;;6.10;5.03;;;;;;;36.74;38.80;100869.25;4917207;29;20056;-73
2023/08/19 11:04:46;;;;;;;5.32;4.82;;;;;;;37.06;37.82;100878.00;4918795;29;20068;-74
2023/08/19 11:07:15;;;;;;;5.93;5.43;;;;;;;37.01;39.01;100872.88;4919486;29;20052;-73
2023/08/19 11:09:45;;;;;;;5.75;5.15;;;;;;;37.04;37.13;100881.31;4918850;29;20071;-73
2023/08/19 11:12:19;;;;;;;6.45;5.35;;;;;;;36.71;37.99;100882.38;4918934;29;20056;-73
2023/08/19 11:14:56;;;;;;;7.30;5.55;;;;;;;35.97;38.77;100872.78;4919103;29;20052;-72
2023/08/19 11:17:30;;;;;;;6.75;5.40;;;;;;;36.49;39.46;100872.91;4919201;29;20079;-74
2023/08/19 11:20:05;;;;;;;;;;;;;;;36.43;39.26;100878.34;4919521;29;20060;-72
2023/08/19 11:22:48;;;;;;;6.50;5.80;;;;;;;36.40;38.87;100876.44;4919114;29;19970;-73
2023/08/19 11:25:16;;;;;;;5.90;5.40;;;;;;;36.31;39.78;100877.09;4918796;29;20052;-73
2023/08/19 11:27:45;;;;;;;6.18;5.68;;;;;;;36.54;39.73;100875.16;4918881;29;20060;-73
2023/08/19 11:30:14;;;;;;;6.78;5.38;;;;;;;36.55;39.21;100871.09;4919151;29;20063;-74
2023/08/19 11:32:46;;;;;;;6.50;5.90;;;;;;;37.12;39.20;100881.91;4918010;29;20059;-74
2023/08/19 11:35:15;;;;;;;6.67;5.67;;;;;;;37.09;38.06;100871.41;4918399;29;20052;-73
2023/08/19 11:37:44;;;;;;;6.05;5.45;;;;;;;37.18;37.64;100867.88;4918125;29;20648;-73